MMOX/OAX METAR and TAF weather

Enter ICAO airport designator
Station Type Date Time Source
MMOX METAR 2024/04/15 01:45 UTC NOAA

MMOX 150145Z 09016KT 7SM FEW070 26/11 A3013 RMK 8/010


Station Type Date Time Source
MMOX Decoded METAR 2024/04/15 01:45 UTC NOAA

Oaxaca / Xoxocotlan, Mexico (MMOX) 16-58N 096-44W
Apr 14, 2024 - 09:45 PM EDT / 2024.04.15 0145 UTC
Wind: from the E (090 degrees) at 18 MPH (16 KT):0
Visibility: 7 mile(s):0
Sky conditions: mostly clear
Temperature: 78 F (26 C)
Dew Point: 51 F (11 C)
Relative Humidity: 39%
Pressure (altimeter): 30.13 in. Hg (1020 hPa)
ob: MMOX 150145Z 09016KT 7SM FEW070 26/11 A3013 RMK 8/010
cycle: 2

Station Type Date Time Source
MMOX TAF 2024/04/15 06:23 UTC NOAA